Time;durP1;ratioP1;P1;durP2;ratioP2;P2;SDS_P1;SDS_P2;PMS_P1;PMS_P2;Temp;Humidity;BMP_temperature;BMP_pressure;BME280_temperature;BME280_humidity;BME280_pressure;Samples;Min_cycle;Max_cycle;Signal;HPM_P1;HPM_P2
2021/08/03 00:00:32;;;;;;;5.20;4.22;;;11.90;92.60;;;;;;4993800;28;20452;-78
2021/08/03 00:02:58;;;;;;;7.00;3.40;;;12.00;92.40;;;;;;5006320;28;20051;-77
2021/08/03 00:05:26;;;;;;;6.55;3.78;;;12.10;92.80;;;;;;4976957;28;20370;-78
2021/08/03 00:07:57;;;;;;;7.93;5.22;;;12.30;92.60;;;;;;5006352;28;20037;-77
2021/08/03 00:10:23;;;;;;;8.52;5.97;;;12.10;92.40;;;;;;4988430;28;20392;-79
2021/08/03 00:12:50;;;;;;;8.85;6.95;;;12.00;92.50;;;;;;4996691;28;20037;-79
2021/08/03 00:15:21;;;;;;;8.02;5.75;;;11.80;92.80;;;;;;4989384;28;20034;-78
2021/08/03 00:17:47;;;;;;;13.30;6.28;;;11.80;92.70;;;;;;4989559;28;20044;-78
2021/08/03 00:20:13;;;;;;;13.75;6.53;;;11.70;92.10;;;;;;4994501;28;20049;-78
2021/08/03 00:22:38;;;;;;;8.80;5.63;;;11.70;92.80;;;;;;5007426;28;20030;-79
2021/08/03 00:25:04;;;;;;;8.82;6.35;;;11.70;92.90;;;;;;5008531;28;20500;-79
2021/08/03 00:27:30;;;;;;;10.38;7.47;;;11.70;94.10;;;;;;5005165;28;20357;-79
2021/08/03 00:29:56;;;;;;;11.75;7.22;;;11.60;93.30;;;;;;5006851;28;20446;-79
2021/08/03 00:32:24;;;;;;;11.48;6.32;;;11.50;93.10;;;;;;4989665;28;20113;-77
2021/08/03 00:34:49;;;;;;;8.18;5.13;;;11.50;93.20;;;;;;5005064;28;20041;-78
2021/08/03 00:37:15;;;;;;;6.70;4.88;;;11.70;93.40;;;;;;4992724;28;20059;-78
2021/08/03 00:39:41;;;;;;;6.63;4.40;;;11.80;93.50;;;;;;4994132;28;20029;-78
2021/08/03 00:42:07;;;;;;;8.65;5.65;;;11.90;93.60;;;;;;4991055;28;20041;-78
2021/08/03 00:44:38;;;;;;;7.88;6.50;;;11.80;93.00;;;;;;5008414;28;20041;-77
2021/08/03 00:47:04;;;;;;;10.52;6.75;;;11.50;92.50;;;;;;4988093;28;20044;-78
2021/08/03 00:49:30;;;;;;;8.18;6.75;;;11.40;92.90;;;;;;4990087;28;20042;-78
2021/08/03 00:51:55;;;;;;;10.88;6.15;;;11.30;93.80;;;;;;5010197;28;20025;-78
2021/08/03 00:54:21;;;;;;;9.90;6.55;;;11.50;94.40;;;;;;5005905;28;20095;-78
2021/08/03 00:56:46;;;;;;;11.07;6.68;;;11.50;93.60;;;;;;4992857;28;20029;-78
2021/08/03 00:59:12;;;;;;;14.40;7.63;;;11.40;93.50;;;;;;4991635;28;20084;-78
2021/08/03 01:01:37;;;;;;;9.80;7.45;;;11.20;94.70;;;;;;4990536;28;20095;-78
2021/08/03 01:04:03;;;;;;;12.45;8.75;;;11.10;95.80;;;;;;4990072;28;20018;-78
2021/08/03 01:06:34;;;;;;;9.18;7.05;;;11.00;96.40;;;;;;4992231;28;20021;-78
2021/08/03 01:09:08;;;;;;;10.85;7.90;;;11.10;94.60;;;;;;4990816;28;20042;-78
2021/08/03 01:11:41;;;;;;;14.05;8.00;;;11.10;94.20;;;;;;4990748;28;20049;-78
2021/08/03 01:14:18;;;;;;;10.30;7.82;;;11.10;94.70;;;;;;5009486;28;20025;-78
2021/08/03 01:16:54;;;;;;;9.80;7.32;;;11.20;93.60;;;;;;4994798;28;20064;-78
2021/08/03 01:19:46;;;;;;;11.30;7.65;;;11.10;93.90;;;;;;5009666;28;20555;-78
2021/08/03 01:22:36;;;;;;;13.30;8.27;;;11.00;94.80;;;;;;5023592;28;20045;-78
2021/08/03 01:25:21;;;;;;;11.40;8.00;;;10.80;95.40;;;;;;5025855;28;20029;-78
2021/08/03 01:28:11;;;;;;;13.45;8.77;;;10.70;94.60;;;;;;5026620;28;20069;-78
2021/08/03 01:30:37;;;;;;;14.40;9.77;;;10.60;95.60;;;;;;5008024;28;20040;-78
2021/08/03 01:33:03;;;;;;;17.73;10.43;;;10.60;95.00;;;;;;4992655;28;20386;-77
2021/08/03 01:35:29;;;;;;;13.07;9.52;;;10.70;95.90;;;;;;4993060;28;20482;-77
2021/08/03 01:37:56;;;;;;;11.27;10.07;;;10.80;95.10;;;;;;4992489;28;20026;-79
2021/08/03 01:40:21;;;;;;;15.82;9.45;;;10.80;94.60;;;;;;4994741;28;20034;-79
2021/08/03 01:42:47;;;;;;;14.20;9.73;;;10.80;95.50;;;;;;4994981;28;20519;-78
2021/08/03 01:45:13;;;;;;;11.77;9.40;;;10.80;94.30;;;;;;5009643;28;20397;-77
2021/08/03 01:47:38;;;;;;;13.77;10.38;;;10.80;94.50;;;;;;4993093;28;20034;-77
2021/08/03 01:50:08;;;;;;;14.27;9.98;;;10.70;94.50;;;;;;5009334;28;20105;-79
2021/08/03 01:52:33;;;;;;;12.05;8.65;;;10.70;94.80;;;;;;4995565;28;20042;-78
2021/08/03 01:54:59;;;;;;;23.85;8.98;;;10.80;94.10;;;;;;4995374;28;20091;-78
2021/08/03 01:57:25;;;;;;;10.05;6.38;;;10.80;94.20;;;;;;4991972;28;20030;-78
2021/08/03 01:59:52;;;;;;;11.73;8.13;;;10.80;94.00;;;;;;4991741;28;20033;-78
2021/08/03 02:02:17;;;;;;;11.50;8.10;;;10.80;94.50;;;;;;4994776;28;20120;-78
2021/08/03 02:04:43;;;;;;;13.45;8.10;;;10.60;94.80;;;;;;4998816;28;20592;-78
2021/08/03 02:07:08;;;;;;;13.10;8.60;;;10.60;95.20;;;;;;4989410;28;20030;-78
2021/08/03 02:09:35;;;;;;;10.48;8.43;;;10.50;95.70;;;;;;4991293;28;20030;-78
2021/08/03 02:12:00;;;;;;;24.27;9.80;;;10.40;95.70;;;;;;4992615;28;20037;-78
2021/08/03 02:14:26;;;;;;;15.65;10.25;;;10.40;96.60;;;;;;4994885;28;20037;-77
2021/08/03 02:16:51;;;;;;;20.80;12.98;;;10.30;96.10;;;;;;4995927;28;20338;-78
2021/08/03 02:19:17;;;;;;;16.75;10.57;;;10.40;96.90;;;;;;4996792;28;20033;-78
2021/08/03 02:21:44;;;;;;;14.82;10.75;;;10.30;95.80;;;;;;5013955;28;20128;-78
2021/08/03 02:24:09;;;;;;;17.85;11.95;;;10.30;95.60;;;;;;4990338;28;20029;-78
2021/08/03 02:26:35;;;;;;;16.80;10.80;;;10.30;95.50;;;;;;5013926;28;20095;-79
2021/08/03 02:29:00;;;;;;;14.60;10.90;;;10.30;96.00;;;;;;4993107;28;20037;-78
2021/08/03 02:31:54;;;;;;;14.65;11.13;;;10.30;96.00;;;;;;4992364;28;20029;-78
2021/08/03 02:34:28;;;;;;;19.65;11.20;;;10.30;95.60;;;;;;4999994;28;20385;-78
2021/08/03 02:36:57;;;;;;;17.25;10.55;;;10.40;96.50;;;;;;4989056;28;20026;-78
2021/08/03 02:39:22;;;;;;;16.35;10.43;;;10.40;96.10;;;;;;4974176;28;20026;-78
2021/08/03 02:41:48;;;;;;;14.73;10.48;;;10.40;96.20;;;;;;4989666;28;20523;-79
2021/08/03 02:44:13;;;;;;;19.02;10.98;;;10.40;96.10;;;;;;5008946;28;20038;-78
2021/08/03 02:46:40;;;;;;;16.70;10.23;;;10.40;96.10;;;;;;5022645;28;20021;-78
2021/08/03 02:49:08;;;;;;;20.08;11.75;;;10.30;95.80;;;;;;4990054;28;20950;-78
2021/08/03 02:51:35;;;;;;;15.90;11.27;;;10.30;96.40;;;;;;5012544;28;20045;-78
2021/08/03 02:54:23;;;;;;;14.45;10.73;;;10.30;97.10;;;;;;4994910;28;20029;-78
2021/08/03 02:56:49;;;;;;;16.90;10.65;;;10.30;97.70;;;;;;4990836;28;20082;-79
2021/08/03 02:59:14;;;;;;;18.85;11.82;;;10.30;97.30;;;;;;5011436;28;20529;-78
2021/08/03 03:01:41;;;;;;;20.45;11.95;;;10.30;97.60;;;;;;5017333;28;20083;-79
2021/08/03 03:04:17;;;;;;;14.63;11.45;;;10.30;97.10;;;;;;5007503;28;20533;-78
2021/08/03 03:06:44;;;;;;;21.30;11.90;;;10.40;97.40;;;;;;4993359;28;20029;-78
2021/08/03 03:09:10;;;;;;;18.80;12.85;;;10.40;97.50;;;;;;4990481;28;20105;-77
2021/08/03 03:11:35;;;;;;;18.70;13.38;;;10.40;97.00;;;;;;5015192;28;20025;-78
2021/08/03 03:14:02;;;;;;;21.13;13.32;;;10.40;97.90;;;;;;5017138;28;20430;-79
2021/08/03 03:16:28;;;;;;;18.50;13.40;;;10.50;97.40;;;;;;4992729;28;20061;-78
2021/08/03 03:18:55;;;;;;;21.90;13.32;;;10.50;96.90;;;;;;5006190;28;20556;-77
2021/08/03 03:21:21;;;;;;;23.17;13.05;;;10.50;96.80;;;;;;4983559;28;20540;-78
2021/08/03 03:23:51;;;;;;;22.80;14.68;;;10.50;96.10;;;;;;4993295;28;20053;-78
2021/08/03 03:26:17;;;;;;;28.23;13.80;;;10.50;96.40;;;;;;4994274;28;20121;-78
2021/08/03 03:28:42;;;;;;;22.92;14.32;;;10.50;97.10;;;;;;4990407;28;20482;-78
2021/08/03 03:31:08;;;;;;;21.83;13.75;;;10.60;96.00;;;;;;4990600;28;20034;-78
2021/08/03 03:33:35;;;;;;;18.35;12.90;;;10.70;96.10;;;;;;4992478;28;20029;-79
2021/08/03 03:36:00;;;;;;;21.83;12.90;;;10.70;96.10;;;;;;4994163;28;20042;-78
2021/08/03 03:38:28;;;;;;;21.48;12.35;;;10.70;96.10;;;;;;4976333;28;20099;-78
2021/08/03 03:40:53;;;;;;;19.15;12.88;;;10.70;96.00;;;;;;4987847;28;20033;-78
2021/08/03 03:43:20;;;;;;;22.02;14.98;;;10.70;96.20;;;;;;4994226;28;20056;-78
2021/08/03 03:45:46;;;;;;;20.17;14.43;;;10.70;95.60;;;;;;5012919;28;20538;-79
2021/08/03 03:48:14;;;;;;;19.80;14.15;;;10.80;95.90;;;;;;4973221;28;20042;-78
2021/08/03 03:50:45;;;;;;;21.73;14.43;;;10.80;95.40;;;;;;4992279;28;20397;-79
2021/08/03 03:53:23;;;;;;;27.83;14.60;;;10.80;95.40;;;;;;4997576;28;20525;-78
2021/08/03 03:55:59;;;;;;;23.73;14.75;;;10.80;95.40;;;;;;4991304;28;20025;-78
2021/08/03 03:58:25;;;;;;;20.02;14.13;;;10.90;95.70;;;;;;5000880;28;20049;-79
2021/08/03 04:00:50;;;;;;;26.73;14.10;;;10.90;95.10;;;;;;5005441;28;20053;-78
2021/08/03 04:03:19;;;;;;;29.88;16.08;;;10.90;95.80;;;;;;4994036;28;20045;-77
2021/08/03 04:05:45;;;;;;;23.42;14.52;;;11.00;96.10;;;;;;5007895;28;20037;-78
2021/08/03 04:08:11;;;;;;;17.35;13.48;;;11.00;95.80;;;;;;4992116;28;20047;-79
2021/08/03 04:10:37;;;;;;;26.77;15.35;;;11.10;96.30;;;;;;4989330;28;20043;-78
2021/08/03 04:13:03;;;;;;;20.63;14.82;;;11.10;96.10;;;;;;5023937;28;20033;-79
2021/08/03 04:15:29;;;;;;;15.00;10.15;;;11.10;95.80;;;;;;5012891;28;20041;-78
2021/08/03 04:17:54;;;;;;;15.32;9.38;;;11.10;95.50;;;;;;4995748;28;20022;-78
2021/08/03 04:20:20;;;;;;;8.57;6.68;;;11.20;95.30;;;;;;4990831;28;20029;-77
2021/08/03 04:22:46;;;;;;;11.82;8.43;;;11.20;95.60;;;;;;4991746;28;20148;-78
2021/08/03 04:25:11;;;;;;;19.38;12.90;;;11.40;95.70;;;;;;4987754;28;20044;-78
2021/08/03 04:27:37;;;;;;;19.55;12.00;;;11.30;95.30;;;;;;5010037;28;20738;-79
2021/08/03 04:30:03;;;;;;;22.85;13.90;;;11.30;95.40;;;;;;4994439;28;20029;-78
2021/08/03 04:32:29;;;;;;;21.75;15.07;;;11.20;95.60;;;;;;4989603;28;20135;-79
2021/08/03 04:34:54;;;;;;;20.67;15.15;;;11.20;95.50;;;;;;4989270;28;20129;-78
2021/08/03 04:37:22;;;;;;;26.38;14.48;;;11.20;95.50;;;;;;4992119;28;20083;-79
2021/08/03 04:39:49;;;;;;;22.05;14.40;;;11.30;98.70;;;;;;5010741;28;20113;-79
2021/08/03 04:42:14;;;;;;;19.30;15.30;;;11.30;97.10;;;;;;5011860;28;20037;-79
2021/08/03 04:44:40;;;;;;;25.40;14.90;;;11.40;96.10;;;;;;5014998;28;20389;-79
2021/08/03 04:47:06;;;;;;;23.00;15.57;;;11.30;96.10;;;;;;4994950;28;20087;-78
2021/08/03 04:49:31;;;;;;;27.60;17.08;;;11.40;97.10;;;;;;4977162;28;20034;-78
2021/08/03 04:51:57;;;;;;;22.23;16.13;;;11.50;97.00;;;;;;4995830;28;20361;-78
2021/08/03 04:54:24;;;;;;;27.65;16.48;;;11.50;95.90;;;;;;4981511;28;20030;-79
2021/08/03 04:56:49;;;;;;;26.65;16.58;;;11.40;96.30;;;;;;4995948;28;20082;-78
2021/08/03 04:59:15;;;;;;;25.83;16.73;;;11.50;96.10;;;;;;4996379;28;20108;-78
2021/08/03 05:01:46;;;;;;;25.00;16.92;;;11.50;96.40;;;;;;4999071;28;20121;-79
2021/08/03 05:04:11;;;;;;;28.10;17.17;;;11.60;97.00;;;;;;4998286;28;20040;-78
2021/08/03 05:06:38;;;;;;;29.35;18.45;;;11.60;96.00;;;;;;5016922;28;20393;-78
2021/08/03 05:09:04;;;;;;;24.80;17.02;;;11.60;96.50;;;;;;4993746;28;20037;-78
2021/08/03 05:11:29;;;;;;;28.35;16.58;;;11.70;96.40;;;;;;4995801;28;20026;-78
2021/08/03 05:13:55;;;;;;;21.45;14.80;;;11.70;95.80;;;;;;5000297;28;20037;-79
2021/08/03 05:16:20;;;;;;;26.52;16.40;;;11.70;96.20;;;;;;5011620;28;20496;-79
2021/08/03 05:18:46;;;;;;;26.70;18.08;;;11.70;95.80;;;;;;4994278;28;20489;-80
2021/08/03 05:21:11;;;;;;;23.83;15.52;;;11.70;95.90;;;;;;4997865;28;20129;-79
2021/08/03 05:23:37;;;;;;;19.73;13.75;;;11.80;96.70;;;;;;5011850;28;20426;-79
2021/08/03 05:26:03;;;;;;;25.20;16.35;;;11.90;96.00;;;;;;4998140;28;22159;-79
2021/08/03 05:28:28;;;;;;;20.98;15.65;;;11.90;95.90;;;;;;4993817;28;20040;-79
2021/08/03 05:30:54;;;;;;;24.33;16.73;;;11.90;96.40;;;;;;4997553;28;20114;-79
2021/08/03 05:33:19;;;;;;;24.65;16.02;;;11.90;95.50;;;;;;5016587;28;20481;-78
2021/08/03 05:35:45;;;;;;;27.00;16.17;;;12.00;96.00;;;;;;5012437;28;20036;-78
2021/08/03 05:38:10;;;;;;;23.35;15.35;;;12.00;96.20;;;;;;5001370;28;20215;-80
2021/08/03 05:40:36;;;;;;;25.67;17.73;;;12.10;96.10;;;;;;4996175;28;20105;-78
2021/08/03 05:43:01;;;;;;;24.25;16.23;;;12.20;97.00;;;;;;4996503;28;20097;-79
2021/08/03 05:45:29;;;;;;;20.70;13.63;;;12.20;96.40;;;;;;4999418;28;20204;-79
2021/08/03 05:47:55;;;;;;;30.00;17.67;;;12.30;96.50;;;;;;4994472;28;20037;-79
2021/08/03 05:50:20;;;;;;;28.08;17.17;;;12.40;96.60;;;;;;4996361;28;20397;-79
2021/08/03 05:52:55;;;;;;;15.73;11.05;;;12.50;96.10;;;;;;4985111;28;20444;-78
2021/08/03 05:55:21;;;;;;;24.02;16.75;;;12.60;96.20;;;;;;4986199;28;20036;-79
2021/08/03 05:57:47;;;;;;;27.73;19.42;;;12.80;96.00;;;;;;5024515;28;20037;-79
2021/08/03 06:00:16;;;;;;;33.33;20.48;;;12.90;95.80;;;;;;4991359;28;20047;-79
2021/08/03 06:02:41;;;;;;;25.30;19.27;;;13.10;95.60;;;;;;4989642;28;20324;-80
2021/08/03 06:05:08;;;;;;;32.58;19.95;;;13.10;95.90;;;;;;4991034;28;20135;-80
2021/08/03 06:07:41;;;;;;;26.35;19.08;;;13.20;95.60;;;;;;4999087;28;20114;-79
2021/08/03 06:10:10;;;;;;;22.58;16.00;;;13.30;95.70;;;;;;4992726;28;20390;-79
2021/08/03 06:12:36;;;;;;;29.70;19.08;;;13.40;95.60;;;;;;4996933;28;20072;-79
2021/08/03 06:15:02;;;;;;;21.45;13.02;;;13.50;95.60;;;;;;5006750;28;20029;-79
2021/08/03 06:17:34;;;;;;;21.83;16.58;;;13.60;95.40;;;;;;4994778;28;20493;-80
2021/08/03 06:20:00;;;;;;;23.70;16.77;;;13.70;95.30;;;;;;5006641;28;20065;-80
2021/08/03 06:22:25;;;;;;;20.27;13.60;;;13.80;95.20;;;;;;4991094;28;20184;-80
2021/08/03 06:24:51;;;;;;;25.15;15.50;;;13.80;95.20;;;;;;4993150;28;20044;-80
2021/08/03 06:27:18;;;;;;;13.45;11.38;;;14.00;95.10;;;;;;4993225;28;20045;-80
2021/08/03 06:29:44;;;;;;;22.77;15.07;;;14.00;95.10;;;;;;5009040;28;20481;-79
2021/08/03 06:32:10;;;;;;;21.77;14.07;;;14.10;95.30;;;;;;4990531;28;20029;-80
2021/08/03 06:34:39;;;;;;;16.58;12.88;;;14.30;95.40;;;;;;5024548;28;20456;-79
2021/08/03 06:37:05;;;;;;;15.70;10.82;;;14.40;95.60;;;;;;4993829;28;20785;-79
2021/08/03 06:39:31;;;;;;;14.57;10.93;;;14.40;95.10;;;;;;4994159;28;20116;-80
2021/08/03 06:42:08;;;;;;;11.75;9.05;;;14.50;95.30;;;;;;4991771;28;20381;-80
2021/08/03 06:44:47;;;;;;;13.73;10.73;;;14.60;95.10;;;;;;4990867;28;20460;-79
2021/08/03 06:47:13;;;;;;;11.85;9.70;;;14.60;95.20;;;;;;4977319;28;20025;-79
2021/08/03 06:49:44;;;;;;;15.55;9.98;;;14.70;94.80;;;;;;5008746;28;20512;-79
2021/08/03 06:52:10;;;;;;;9.35;7.28;;;14.80;95.10;;;;;;5008953;28;20040;-80
2021/08/03 06:54:36;;;;;;;11.20;9.02;;;14.90;94.70;;;;;;4990564;28;20041;-79
2021/08/03 06:57:13;;;;;;;11.80;9.52;;;15.10;95.30;;;;;;4991555;28;20540;-79
2021/08/03 06:59:47;;;;;;;16.20;9.32;;;15.20;95.40;;;;;;4995193;28;20088;-81
2021/08/03 07:02:16;;;;;;;12.15;8.35;;;15.30;95.50;;;;;;4990915;28;20044;-81
2021/08/03 07:04:59;;;;;;;10.07;7.38;;;15.30;95.20;;;;;;5008597;28;20527;-78
2021/08/03 07:07:31;;;;;;;11.13;8.18;;;15.50;95.10;;;;;;4989892;28;20025;-79
2021/08/03 07:09:56;;;;;;;8.45;6.10;;;15.60;95.30;;;;;;4992599;28;20048;-79
2021/08/03 07:12:28;;;;;;;7.85;5.38;;;15.60;95.10;;;;;;4995122;28;20489;-79
2021/08/03 07:14:59;;;;;;;10.63;8.30;;;15.70;94.80;;;;;;5007417;28;20026;-79
2021/08/03 07:17:30;;;;;;;15.55;9.20;;;15.80;95.40;;;;;;4997852;28;20405;-79
2021/08/03 07:19:59;;;;;;;7.90;6.78;;;15.90;95.70;;;;;;4992379;28;20083;-79
2021/08/03 07:22:24;;;;;;;12.13;8.50;;;16.10;95.80;;;;;;4990811;28;20087;-79
2021/08/03 07:24:53;;;;;;;12.38;8.07;;;16.00;95.50;;;;;;4994522;28;20030;-79
2021/08/03 07:27:19;;;;;;;9.57;8.35;;;16.10;95.60;;;;;;4992056;28;20048;-79
2021/08/03 07:29:44;;;;;;;10.20;7.72;;;16.20;95.90;;;;;;4992386;28;20033;-79
2021/08/03 07:32:13;;;;;;;14.27;7.63;;;16.20;95.90;;;;;;4995116;28;20064;-80
2021/08/03 07:34:42;;;;;;;9.30;7.97;;;16.30;95.70;;;;;;5011489;28;20123;-79
2021/08/03 07:37:08;;;;;;;12.38;8.85;;;16.40;96.00;;;;;;4986646;28;20302;-79
2021/08/03 07:39:34;;;;;;;7.85;6.35;;;16.50;96.00;;;;;;4998785;28;20047;-79
2021/08/03 07:41:59;;;;;;;6.88;5.95;;;16.60;95.80;;;;;;4991503;28;20061;-79
2021/08/03 07:44:25;;;;;;;11.27;6.97;;;16.80;95.70;;;;;;4987188;28;20036;-79
2021/08/03 07:46:50;;;;;;;12.38;7.68;;;16.90;96.20;;;;;;4993324;28;20113;-79
2021/08/03 07:49:16;;;;;;;8.95;7.00;;;17.10;96.60;;;;;;4995272;28;20030;-79
2021/08/03 07:51:42;;;;;;;10.43;6.93;;;17.30;96.60;;;;;;4998893;28;20516;-79
2021/08/03 07:54:07;;;;;;;9.60;6.82;;;17.40;96.90;;;;;;4990316;28;20048;-79
2021/08/03 07:56:32;;;;;;;11.18;7.25;;;17.60;96.90;;;;;;4993942;28;20029;-79
2021/08/03 07:58:58;;;;;;;11.50;7.32;;;17.70;97.00;;;;;;4989222;28;20334;-79
2021/08/03 08:01:24;;;;;;;10.02;6.40;;;17.80;96.70;;;;;;4993332;28;20057;-79
2021/08/03 08:03:49;;;;;;;13.07;7.35;;;17.90;96.50;;;;;;4990741;28;20305;-80
2021/08/03 08:06:15;;;;;;;8.10;6.57;;;17.90;96.40;;;;;;4992122;28;20053;-79
2021/08/03 08:08:40;;;;;;;9.20;6.68;;;18.20;97.00;;;;;;4992991;28;20065;-79
2021/08/03 08:11:06;;;;;;;8.70;6.00;;;18.30;96.70;;;;;;4992987;28;20037;-79
2021/08/03 08:13:34;;;;;;;9.80;6.82;;;18.40;96.80;;;;;;4994233;28;20034;-79
2021/08/03 08:16:03;;;;;;;9.65;6.90;;;18.60;96.90;;;;;;5006450;28;20485;-79
2021/08/03 08:18:30;;;;;;;14.90;5.93;;;18.60;96.80;;;;;;5010390;28;20067;-79
2021/08/03 08:20:56;;;;;;;6.85;5.63;;;18.70;96.30;;;;;;4997110;28;20040;-79
2021/08/03 08:23:21;;;;;;;9.43;6.55;;;18.90;96.60;;;;;;4997954;28;20038;-79
2021/08/03 08:25:47;;;;;;;7.75;6.28;;;18.90;96.30;;;;;;4984804;28;20029;-79
2021/08/03 08:28:16;;;;;;;10.00;6.43;;;19.00;96.20;;;;;;4999698;28;20408;-79
2021/08/03 08:30:42;;;;;;;9.88;6.07;;;19.00;96.40;;;;;;4996738;28;20565;-80
2021/08/03 08:33:08;;;;;;;10.50;6.03;;;18.90;96.20;;;;;;4998223;28;20144;-79
2021/08/03 08:35:34;;;;;;;12.30;6.07;;;19.10;96.10;;;;;;4997895;28;20034;-80
2021/08/03 08:38:00;;;;;;;8.18;6.32;;;19.10;96.30;;;;;;5000926;28;20029;-79
2021/08/03 08:40:26;;;;;;;7.45;5.32;;;19.20;96.00;;;;;;4997346;28;20084;-79
2021/08/03 08:43:00;;;;;;;8.32;5.80;;;19.20;95.50;;;;;;5013341;28;20260;-78
2021/08/03 08:45:25;;;;;;;10.23;6.90;;;19.30;96.00;;;;;;5012562;28;20362;-79
2021/08/03 08:47:51;;;;;;;9.00;6.22;;;19.40;96.00;;;;;;4997292;28;20044;-80
2021/08/03 08:50:21;;;;;;;6.22;4.93;;;19.40;95.70;;;;;;5000447;28;20480;-80
2021/08/03 08:52:53;;;;;;;7.90;5.60;;;19.50;95.70;;;;;;4997978;28;20033;-80
2021/08/03 08:55:19;;;;;;;8.90;5.13;;;19.60;95.80;;;;;;4970467;28;20564;-80
2021/08/03 08:57:47;;;;;;;6.15;4.40;;;19.70;95.90;;;;;;4993581;28;20117;-80
2021/08/03 09:00:13;;;;;;;7.70;5.00;;;19.90;95.70;;;;;;4997507;28;20667;-80
2021/08/03 09:02:43;;;;;;;7.50;5.38;;;20.10;96.00;;;;;;4993537;28;20128;-80
2021/08/03 09:05:15;;;;;;;7.05;5.50;;;20.40;96.20;;;;;;5007786;28;20032;-83
2021/08/03 09:07:55;;;;;;;7.70;5.32;;;20.70;96.10;;;;;;4982112;28;20022;-81
2021/08/03 09:10:31;;;;;;;8.00;5.28;;;21.00;95.60;;;;;;4998072;28;20044;-80
2021/08/03 09:13:01;;;;;;;7.97;4.93;;;21.30;95.50;;;;;;5011681;28;20493;-80
2021/08/03 09:15:30;;;;;;;7.68;5.35;;;21.40;95.20;;;;;;5003322;28;20060;-82
2021/08/03 09:18:19;;;;;;;9.50;5.82;;;21.60;95.00;;;;;;4995521;28;20105;-80
2021/08/03 09:20:45;;;;;;;6.45;4.68;;;21.80;94.60;;;;;;4998151;28;20041;-80
2021/08/03 09:23:11;;;;;;;8.70;4.55;;;22.10;95.10;;;;;;4998961;28;20037;-81
2021/08/03 09:25:38;;;;;;;7.53;4.43;;;22.10;94.70;;;;;;4997037;28;20041;-81
2021/08/03 09:28:06;;;;;;;7.13;4.47;;;22.40;94.40;;;;;;4987397;28;20564;-81
2021/08/03 09:30:33;;;;;;;5.43;4.10;;;22.60;93.70;;;;;;4969150;28;20083;-81
2021/08/03 09:33:01;;;;;;;8.13;3.80;;;22.90;93.90;;;;;;4975517;28;20437;-81
2021/08/03 09:35:27;;;;;;;4.57;4.10;;;23.10;93.00;;;;;;4981997;28;20567;-82
2021/08/03 09:37:59;;;;;;;7.10;4.22;;;23.30;93.60;;;;;;5012851;28;20042;-81
2021/08/03 09:40:30;;;;;;;6.20;4.15;;;23.50;92.90;;;;;;4991777;28;20024;-82
2021/08/03 09:43:08;;;;;;;4.40;3.90;;;23.70;92.00;;;;;;4969366;28;20065;-81
2021/08/03 09:45:57;;;;;;;4.60;4.07;;;23.90;92.20;;;;;;5005514;28;20069;-81
2021/08/03 09:48:24;;;;;;;6.55;4.03;;;24.10;92.50;;;;;;4995015;28;20121;-82
2021/08/03 09:51:11;;;;;;;4.82;3.75;;;24.40;91.40;;;;;;4992034;28;20093;-82
2021/08/03 09:53:47;;;;;;;7.65;3.78;;;24.60;91.90;;;;;;5011050;28;20041;-81
2021/08/03 09:56:32;;;;;;;3.63;2.97;;;24.90;90.80;;;;;;5008816;28;20042;-82
2021/08/03 09:58:58;;;;;;;4.65;3.03;;;25.10;91.80;;;;;;4982998;28;20096;-83
2021/08/03 10:01:30;;;;;;;4.15;2.92;;;25.40;90.90;;;;;;4996125;28;20026;-85
2021/08/03 10:03:58;;;;;;;3.08;2.10;;;25.70;88.50;;;;;;4985786;28;20060;-85
2021/08/03 10:06:27;;;;;;;4.25;2.70;;;25.80;88.20;;;;;;4996555;28;20486;-84
2021/08/03 10:08:55;;;;;;;5.68;3.13;;;26.10;86.40;;;;;;4998870;28;20029;-84
2021/08/03 10:11:21;;;;;;;6.18;2.72;;;26.40;85.90;;;;;;4994390;28;20493;-85
2021/08/03 10:13:47;;;;;;;4.40;1.92;;;26.50;82.90;;;;;;4996204;28;20034;-85
2021/08/03 10:16:13;;;;;;;4.72;2.20;;;26.80;82.00;;;;;;4994972;28;20042;-85
2021/08/03 10:18:43;;;;;;;3.88;2.03;;;26.80;83.60;;;;;;4993707;28;20112;-85
2021/08/03 10:21:15;;;;;;;5.40;2.35;;;27.00;83.10;;;;;;4991706;28;20493;-85
2021/08/03 10:23:43;;;;;;;5.85;1.92;;;27.10;82.30;;;;;;5000960;28;20489;-85
2021/08/03 10:26:32;;;;;;;3.10;2.13;;;27.30;77.80;;;;;;4976250;28;20112;-84
2021/08/03 10:29:20;;;;;;;3.40;1.80;;;27.20;78.30;;;;;;4970591;28;20398;-84
2021/08/03 10:31:46;;;;;;;5.22;1.95;;;27.20;81.10;;;;;;5028310;28;20021;-84
2021/08/03 10:34:11;;;;;;;1.98;1.30;;;27.70;77.60;;;;;;4991426;28;20043;-83
2021/08/03 10:36:39;;;;;;;3.58;1.90;;;27.80;77.00;;;;;;4999397;28;20116;-83
2021/08/03 10:39:15;;;;;;;2.63;2.22;;;28.00;73.70;;;;;;5007546;28;20079;-83
2021/08/03 10:41:59;;;;;;;2.65;2.03;;;28.20;74.20;;;;;;5010403;28;20137;-83
2021/08/03 10:44:50;;;;;;;3.38;1.85;;;28.40;72.30;;;;;;5025640;28;20477;-81
2021/08/03 10:47:32;;;;;;;4.25;2.20;;;28.80;71.20;;;;;;4995751;28;20536;-80
2021/08/03 10:50:02;;;;;;;2.25;2.05;;;28.80;69.00;;;;;;5023811;28;20025;-81
2021/08/03 10:52:49;;;;;;;1.92;1.63;;;28.70;69.60;;;;;;4991940;28;20025;-79
2021/08/03 10:55:36;;;;;;;6.45;2.58;;;28.90;68.70;;;;;;5006848;28;20064;-78
2021/08/03 10:58:10;;;;;;;3.45;2.08;;;28.90;67.40;;;;;;5026915;28;20060;-78
2021/08/03 11:00:52;;;;;;;3.47;2.20;;;28.90;66.20;;;;;;5007487;28;20452;-78
2021/08/03 11:03:35;;;;;;;2.97;2.03;;;28.90;64.60;;;;;;4976429;28;20494;-80
2021/08/03 11:06:09;;;;;;;3.00;1.92;;;28.70;64.40;;;;;;5025995;28;20037;-79
2021/08/03 11:08:35;;;;;;;5.30;2.45;;;28.60;65.50;;;;;;5007897;28;20029;-79
2021/08/03 11:11:27;;;;;;;3.20;1.58;;;28.50;64.40;;;;;;4992659;28;20041;-79
2021/08/03 11:14:05;;;;;;;5.78;2.10;;;28.30;65.80;;;;;;4996333;28;20048;-78
2021/08/03 11:16:31;;;;;;;4.00;1.90;;;28.20;63.90;;;;;;4993897;28;20091;-79
2021/08/03 11:19:03;;;;;;;3.03;2.03;;;28.00;62.80;;;;;;5008060;28;20715;-78
2021/08/03 11:21:30;;;;;;;2.20;2.00;;;27.80;65.70;;;;;;4992163;28;20549;-78
2021/08/03 11:24:14;;;;;;;5.20;2.72;;;27.70;64.60;;;;;;5009003;28;20030;-77
2021/08/03 11:26:52;;;;;;;6.78;2.30;;;27.50;64.10;;;;;;4975365;28;20064;-78
2021/08/03 11:29:37;;;;;;;3.05;1.90;;;27.20;63.70;;;;;;4992147;28;20029;-79
2021/08/03 11:32:19;;;;;;;2.95;2.00;;;27.00;62.80;;;;;;4978410;28;20032;-79
2021/08/03 11:34:47;;;;;;;4.03;2.33;;;26.80;65.40;;;;;;5007077;28;20032;-80
2021/08/03 11:37:19;;;;;;;3.22;2.15;;;26.50;64.20;;;;;;4995069;28;20033;-79
2021/08/03 11:39:53;;;;;;;5.70;2.08;;;26.30;63.90;;;;;;4642017;28;9999764;-80
2021/08/03 11:42:31;;;;;;;2.92;2.13;;;26.10;65.40;;;;;;5006862;28;20037;-78
2021/08/03 11:45:07;;;;;;;3.42;2.22;;;26.00;64.70;;;;;;5004425;28;20087;-79
2021/08/03 11:47:37;;;;;;;3.38;2.22;;;25.90;66.00;;;;;;5004386;28;20033;-79
2021/08/03 11:50:03;;;;;;;5.57;2.20;;;25.70;64.70;;;;;;5005659;28;20021;-80
2021/08/03 11:52:30;;;;;;;5.78;1.95;;;25.50;65.10;;;;;;4987860;28;20021;-80
2021/08/03 11:54:57;;;;;;;5.57;2.80;;;25.40;67.00;;;;;;4973799;28;20485;-79
2021/08/03 11:57:30;;;;;;;5.50;2.83;;;25.20;66.30;;;;;;4987385;28;20088;-79
2021/08/03 12:00:12;;;;;;;5.18;3.03;;;24.90;66.40;;;;;;4975234;28;20560;-79
2021/08/03 12:02:38;;;;;;;6.75;3.00;;;24.70;65.60;;;;;;5006068;28;20125;-80
2021/08/03 12:05:11;;;;;;;5.32;2.70;;;24.50;65.60;;;;;;5006874;28;20068;-79
2021/08/03 12:07:37;;;;;;;6.85;2.25;;;24.40;66.00;;;;;;4989828;28;20036;-80
2021/08/03 12:10:03;;;;;;;3.53;2.67;;;24.30;68.40;;;;;;4991209;28;20699;-80
2021/08/03 12:12:29;;;;;;;4.60;3.15;;;24.00;69.20;;;;;;4994680;28;20034;-79
2021/08/03 12:15:02;;;;;;;4.28;2.30;;;23.90;70.50;;;;;;5008499;28;20032;-79
2021/08/03 12:17:28;;;;;;;4.47;2.30;;;23.80;70.40;;;;;;4991293;28;20036;-78
2021/08/03 12:20:00;;;;;;;2.60;1.92;;;23.60;70.50;;;;;;4994369;28;20037;-79
2021/08/03 12:22:27;;;;;;;3.60;2.50;;;23.50;71.70;;;;;;4993754;28;20128;-80
2021/08/03 12:25:00;;;;;;;3.50;2.90;;;23.30;71.80;;;;;;4990640;28;20563;-79
2021/08/03 12:27:25;;;;;;;2.25;2.00;;;23.20;72.30;;;;;;4991933;28;20391;-80
2021/08/03 12:29:51;;;;;;;3.53;2.83;;;23.20;72.30;;;;;;5008325;28;20029;-79
2021/08/03 12:32:38;;;;;;;5.53;3.67;;;23.30;72.80;;;;;;4991028;28;20509;-78
2021/08/03 12:35:16;;;;;;;6.57;3.05;;;23.30;72.00;;;;;;5007633;28;20513;-79
2021/08/03 12:37:42;;;;;;;4.75;3.70;;;23.40;72.40;;;;;;4993798;28;20412;-78
2021/08/03 12:40:26;;;;;;;4.45;3.15;;;23.30;71.60;;;;;;4992872;28;20036;-79
2021/08/03 12:42:53;;;;;;;5.10;3.80;;;23.30;71.50;;;;;;5024894;28;20128;-79
2021/08/03 12:45:19;;;;;;;3.90;3.40;;;23.20;71.50;;;;;;4990017;28;20083;-79
2021/08/03 12:47:55;;;;;;;4.43;3.70;;;23.10;71.20;;;;;;4993905;28;20045;-78